Terminal Aerodrome Forecast
Issued by NWS

Home | Current Version | Previous Version | Text Only | Print | Product List | Glossary On
Versions: 1 2 3 4 5 6 7 8 9 10 11 12 13 14 15
000
FTUS46 KSEW 221900 AAA
TAFCLM
TAF AMD
KCLM 221902Z 2219/2318 VRB04KT P6SM FEW015 BKN035
     FM230500 10004KT P6SM -SHRA SCT035 BKN070 OVC120
     FM231200 09004KT P6SM VCSH OVC035
      TEMPO 2312/2315 1SM BR SCT003 BKN035
     FM231500 12005KT P6SM -RA SCT010 OVC035
      AMD NOT SKED=

USA.gov is the U.S. government's official web portal to all federal, state and local government web resources and services.